sensor_id;sensor_type;location;lat;lon;timestamp;P1;durP1;ratioP1;P2;durP2;ratioP2
76176;SDS011;64938;47.696;8.066;2024-01-27T00:00:08;5.30;;;3.23;;
76176;SDS011;64938;47.696;8.066;2024-01-27T00:02:35;6.40;;;3.00;;
76176;SDS011;64938;47.696;8.066;2024-01-27T00:05:01;5.57;;;2.97;;
76176;SDS011;64938;47.696;8.066;2024-01-27T00:07:27;8.77;;;3.67;;
76176;SDS011;64938;47.696;8.066;2024-01-27T00:09:54;5.80;;;2.93;;
76176;SDS011;64938;47.696;8.066;2024-01-27T00:12:20;3.97;;;3.20;;
76176;SDS011;64938;47.696;8.066;2024-01-27T00:14:47;11.20;;;3.90;;
76176;SDS011;64938;47.696;8.066;2024-01-27T00:17:16;10.40;;;3.40;;
76176;SDS011;64938;47.696;8.066;2024-01-27T00:19:42;13.03;;;3.60;;
76176;SDS011;64938;47.696;8.066;2024-01-27T00:22:11;6.67;;;3.60;;
76176;SDS011;64938;47.696;8.066;2024-01-27T00:24:37;5.90;;;3.37;;
76176;SDS011;64938;47.696;8.066;2024-01-27T00:27:04;7.80;;;3.80;;
76176;SDS011;64938;47.696;8.066;2024-01-27T00:29:30;10.70;;;3.70;;
76176;SDS011;64938;47.696;8.066;2024-01-27T00:31:55;8.67;;;3.50;;
76176;SDS011;64938;47.696;8.066;2024-01-27T00:34:22;8.27;;;4.17;;
76176;SDS011;64938;47.696;8.066;2024-01-27T00:36:48;7.80;;;4.67;;
76176;SDS011;64938;47.696;8.066;2024-01-27T00:39:15;11.80;;;4.40;;
76176;SDS011;64938;47.696;8.066;2024-01-27T00:41:41;6.70;;;4.40;;
76176;SDS011;64938;47.696;8.066;2024-01-27T00:44:08;7.83;;;4.80;;
76176;SDS011;64938;47.696;8.066;2024-01-27T00:46:34;6.33;;;4.20;;
76176;SDS011;64938;47.696;8.066;2024-01-27T00:49:01;4.57;;;3.60;;
76176;SDS011;64938;47.696;8.066;2024-01-27T00:51:27;14.60;;;4.33;;
76176;SDS011;64938;47.696;8.066;2024-01-27T00:53:53;8.53;;;4.87;;
76176;SDS011;64938;47.696;8.066;2024-01-27T00:56:19;32.53;;;15.40;;
76176;SDS011;64938;47.696;8.066;2024-01-27T00:58:45;14.27;;;5.33;;
76176;SDS011;64938;47.696;8.066;2024-01-27T01:01:11;5.80;;;3.70;;
76176;SDS011;64938;47.696;8.066;2024-01-27T01:03:37;3.53;;;3.03;;
76176;SDS011;64938;47.696;8.066;2024-01-27T01:06:03;6.70;;;4.20;;
76176;SDS011;64938;47.696;8.066;2024-01-27T01:08:29;6.43;;;3.37;;
76176;SDS011;64938;47.696;8.066;2024-01-27T01:10:56;6.80;;;3.43;;
76176;SDS011;64938;47.696;8.066;2024-01-27T01:13:22;5.20;;;3.87;;
76176;SDS011;64938;47.696;8.066;2024-01-27T01:15:48;7.03;;;3.50;;
76176;SDS011;64938;47.696;8.066;2024-01-27T01:18:14;6.20;;;3.57;;
76176;SDS011;64938;47.696;8.066;2024-01-27T01:20:40;5.27;;;4.70;;
76176;SDS011;64938;47.696;8.066;2024-01-27T01:23:07;6.40;;;3.37;;
76176;SDS011;64938;47.696;8.066;2024-01-27T01:25:33;5.00;;;3.00;;
76176;SDS011;64938;47.696;8.066;2024-01-27T01:27:59;5.37;;;3.17;;
76176;SDS011;64938;47.696;8.066;2024-01-27T01:30:25;5.33;;;2.90;;
76176;SDS011;64938;47.696;8.066;2024-01-27T01:32:50;7.17;;;3.40;;
76176;SDS011;64938;47.696;8.066;2024-01-27T01:35:17;6.03;;;3.30;;
76176;SDS011;64938;47.696;8.066;2024-01-27T01:37:43;5.33;;;2.77;;
76176;SDS011;64938;47.696;8.066;2024-01-27T01:40:09;4.10;;;3.33;;
76176;SDS011;64938;47.696;8.066;2024-01-27T01:42:37;4.20;;;3.30;;
76176;SDS011;64938;47.696;8.066;2024-01-27T01:45:03;4.03;;;3.00;;
76176;SDS011;64938;47.696;8.066;2024-01-27T01:47:29;3.87;;;3.00;;
76176;SDS011;64938;47.696;8.066;2024-01-27T01:49:55;7.13;;;3.30;;
76176;SDS011;64938;47.696;8.066;2024-01-27T01:52:21;4.63;;;2.73;;
76176;SDS011;64938;47.696;8.066;2024-01-27T01:54:47;4.90;;;3.43;;
76176;SDS011;64938;47.696;8.066;2024-01-27T01:57:14;5.43;;;3.00;;
76176;SDS011;64938;47.696;8.066;2024-01-27T01:59:40;7.93;;;4.10;;
76176;SDS011;64938;47.696;8.066;2024-01-27T02:02:07;5.43;;;3.27;;
76176;SDS011;64938;47.696;8.066;2024-01-27T02:04:41;6.47;;;3.80;;
76176;SDS011;64938;47.696;8.066;2024-01-27T02:07:08;11.13;;;3.57;;
76176;SDS011;64938;47.696;8.066;2024-01-27T02:09:34;5.33;;;4.20;;
76176;SDS011;64938;47.696;8.066;2024-01-27T02:12:01;4.67;;;3.17;;
76176;SDS011;64938;47.696;8.066;2024-01-27T02:14:27;4.90;;;3.17;;
76176;SDS011;64938;47.696;8.066;2024-01-27T02:16:53;5.93;;;3.13;;
76176;SDS011;64938;47.696;8.066;2024-01-27T02:19:19;7.50;;;3.40;;
76176;SDS011;64938;47.696;8.066;2024-01-27T02:21:45;9.13;;;3.83;;
76176;SDS011;64938;47.696;8.066;2024-01-27T02:24:11;4.10;;;3.10;;
76176;SDS011;64938;47.696;8.066;2024-01-27T02:26:37;14.17;;;3.10;;
76176;SDS011;64938;47.696;8.066;2024-01-27T02:29:04;6.87;;;3.10;;
76176;SDS011;64938;47.696;8.066;2024-01-27T02:31:30;3.40;;;2.97;;
76176;SDS011;64938;47.696;8.066;2024-01-27T02:33:56;7.00;;;2.70;;
76176;SDS011;64938;47.696;8.066;2024-01-27T02:36:22;3.73;;;2.87;;
76176;SDS011;64938;47.696;8.066;2024-01-27T02:38:48;3.10;;;2.53;;
76176;SDS011;64938;47.696;8.066;2024-01-27T02:41:14;3.67;;;2.73;;
76176;SDS011;64938;47.696;8.066;2024-01-27T02:43:40;4.03;;;2.33;;
76176;SDS011;64938;47.696;8.066;2024-01-27T02:46:07;2.93;;;2.20;;
76176;SDS011;64938;47.696;8.066;2024-01-27T02:48:34;5.63;;;2.70;;
76176;SDS011;64938;47.696;8.066;2024-01-27T02:51:02;7.20;;;2.80;;
76176;SDS011;64938;47.696;8.066;2024-01-27T02:53:29;5.80;;;3.07;;
76176;SDS011;64938;47.696;8.066;2024-01-27T02:55:55;4.43;;;2.67;;
76176;SDS011;64938;47.696;8.066;2024-01-27T02:58:21;4.10;;;2.40;;
76176;SDS011;64938;47.696;8.066;2024-01-27T03:00:47;2.97;;;1.87;;
76176;SDS011;64938;47.696;8.066;2024-01-27T03:03:13;4.90;;;2.60;;
76176;SDS011;64938;47.696;8.066;2024-01-27T03:05:40;4.87;;;3.00;;
76176;SDS011;64938;47.696;8.066;2024-01-27T03:08:06;3.07;;;2.77;;
76176;SDS011;64938;47.696;8.066;2024-01-27T03:10:32;3.23;;;2.53;;
76176;SDS011;64938;47.696;8.066;2024-01-27T03:12:58;6.43;;;3.20;;
76176;SDS011;64938;47.696;8.066;2024-01-27T03:15:24;7.73;;;3.30;;
76176;SDS011;64938;47.696;8.066;2024-01-27T03:17:50;7.20;;;3.70;;
76176;SDS011;64938;47.696;8.066;2024-01-27T03:20:16;3.63;;;3.00;;
76176;SDS011;64938;47.696;8.066;2024-01-27T03:22:42;5.20;;;4.00;;
76176;SDS011;64938;47.696;8.066;2024-01-27T03:25:09;5.20;;;3.20;;
76176;SDS011;64938;47.696;8.066;2024-01-27T03:27:36;10.60;;;4.50;;
76176;SDS011;64938;47.696;8.066;2024-01-27T03:30:02;6.40;;;4.00;;
76176;SDS011;64938;47.696;8.066;2024-01-27T03:32:29;6.47;;;4.10;;
76176;SDS011;64938;47.696;8.066;2024-01-27T03:34:59;5.43;;;3.73;;
76176;SDS011;64938;47.696;8.066;2024-01-27T03:37:25;7.47;;;3.87;;
76176;SDS011;64938;47.696;8.066;2024-01-27T03:39:51;4.37;;;3.50;;
76176;SDS011;64938;47.696;8.066;2024-01-27T03:42:19;4.23;;;2.53;;
76176;SDS011;64938;47.696;8.066;2024-01-27T03:44:45;3.80;;;2.57;;
76176;SDS011;64938;47.696;8.066;2024-01-27T03:47:11;5.57;;;3.57;;
76176;SDS011;64938;47.696;8.066;2024-01-27T03:49:37;4.27;;;3.30;;
76176;SDS011;64938;47.696;8.066;2024-01-27T03:52:04;5.47;;;3.73;;
76176;SDS011;64938;47.696;8.066;2024-01-27T03:54:29;11.03;;;3.50;;
76176;SDS011;64938;47.696;8.066;2024-01-27T03:56:55;5.03;;;3.20;;
76176;SDS011;64938;47.696;8.066;2024-01-27T03:59:21;4.53;;;3.50;;
76176;SDS011;64938;47.696;8.066;2024-01-27T04:01:47;5.17;;;2.77;;
76176;SDS011;64938;47.696;8.066;2024-01-27T04:04:13;3.97;;;3.57;;
76176;SDS011;64938;47.696;8.066;2024-01-27T04:06:39;7.30;;;3.70;;
76176;SDS011;64938;47.696;8.066;2024-01-27T04:09:06;5.03;;;3.10;;
76176;SDS011;64938;47.696;8.066;2024-01-27T04:11:35;5.53;;;3.40;;
76176;SDS011;64938;47.696;8.066;2024-01-27T04:14:03;5.97;;;3.27;;
76176;SDS011;64938;47.696;8.066;2024-01-27T04:16:29;5.77;;;3.30;;
76176;SDS011;64938;47.696;8.066;2024-01-27T04:18:56;6.67;;;3.50;;
76176;SDS011;64938;47.696;8.066;2024-01-27T04:21:22;6.07;;;3.30;;
76176;SDS011;64938;47.696;8.066;2024-01-27T04:23:48;4.50;;;2.93;;
76176;SDS011;64938;47.696;8.066;2024-01-27T04:26:14;5.90;;;3.17;;
76176;SDS011;64938;47.696;8.066;2024-01-27T04:28:40;5.53;;;3.00;;
76176;SDS011;64938;47.696;8.066;2024-01-27T04:31:06;4.33;;;3.17;;
76176;SDS011;64938;47.696;8.066;2024-01-27T04:33:32;5.23;;;3.07;;
76176;SDS011;64938;47.696;8.066;2024-01-27T04:35:58;5.70;;;3.17;;
76176;SDS011;64938;47.696;8.066;2024-01-27T04:38:24;6.83;;;3.10;;
76176;SDS011;64938;47.696;8.066;2024-01-27T04:40:50;4.40;;;3.27;;
76176;SDS011;64938;47.696;8.066;2024-01-27T04:43:17;5.00;;;3.10;;
76176;SDS011;64938;47.696;8.066;2024-01-27T04:45:44;9.00;;;2.80;;
76176;SDS011;64938;47.696;8.066;2024-01-27T04:48:10;5.63;;;4.00;;
76176;SDS011;64938;47.696;8.066;2024-01-27T04:50:36;8.47;;;5.20;;
76176;SDS011;64938;47.696;8.066;2024-01-27T04:53:01;5.83;;;4.20;;
76176;SDS011;64938;47.696;8.066;2024-01-27T04:55:27;6.60;;;3.70;;
76176;SDS011;64938;47.696;8.066;2024-01-27T04:57:53;12.37;;;3.80;;
76176;SDS011;64938;47.696;8.066;2024-01-27T05:00:20;4.80;;;3.20;;
76176;SDS011;64938;47.696;8.066;2024-01-27T05:02:46;6.30;;;3.13;;
76176;SDS011;64938;47.696;8.066;2024-01-27T05:05:15;6.90;;;3.10;;
76176;SDS011;64938;47.696;8.066;2024-01-27T05:07:41;6.97;;;5.57;;
76176;SDS011;64938;47.696;8.066;2024-01-27T05:12:51;9.60;;;3.10;;
76176;SDS011;64938;47.696;8.066;2024-01-27T05:15:17;4.37;;;2.90;;
76176;SDS011;64938;47.696;8.066;2024-01-27T05:17:44;7.10;;;3.80;;
76176;SDS011;64938;47.696;8.066;2024-01-27T05:20:09;8.07;;;5.80;;
76176;SDS011;64938;47.696;8.066;2024-01-27T05:22:36;7.07;;;3.77;;
76176;SDS011;64938;47.696;8.066;2024-01-27T05:25:02;7.87;;;4.10;;
76176;SDS011;64938;47.696;8.066;2024-01-27T05:27:29;7.10;;;4.40;;
76176;SDS011;64938;47.696;8.066;2024-01-27T05:29:56;8.87;;;3.60;;
76176;SDS011;64938;47.696;8.066;2024-01-27T05:32:21;6.50;;;3.70;;
76176;SDS011;64938;47.696;8.066;2024-01-27T05:34:47;6.70;;;3.63;;
76176;SDS011;64938;47.696;8.066;2024-01-27T05:37:13;7.20;;;3.43;;
76176;SDS011;64938;47.696;8.066;2024-01-27T05:39:39;9.00;;;3.43;;
76176;SDS011;64938;47.696;8.066;2024-01-27T05:42:05;7.10;;;4.10;;
76176;SDS011;64938;47.696;8.066;2024-01-27T05:44:31;8.47;;;5.10;;
76176;SDS011;64938;47.696;8.066;2024-01-27T05:46:57;5.67;;;4.77;;
76176;SDS011;64938;47.696;8.066;2024-01-27T05:49:22;4.20;;;3.07;;
76176;SDS011;64938;47.696;8.066;2024-01-27T05:51:48;6.80;;;3.70;;
76176;SDS011;64938;47.696;8.066;2024-01-27T05:54:15;7.43;;;3.43;;
76176;SDS011;64938;47.696;8.066;2024-01-27T05:56:42;5.80;;;3.20;;
76176;SDS011;64938;47.696;8.066;2024-01-27T05:59:08;6.63;;;3.30;;
76176;SDS011;64938;47.696;8.066;2024-01-27T06:01:34;145.80;;;46.83;;
76176;SDS011;64938;47.696;8.066;2024-01-27T06:04:00;192.10;;;47.20;;
76176;SDS011;64938;47.696;8.066;2024-01-27T06:06:26;69.13;;;21.30;;
76176;SDS011;64938;47.696;8.066;2024-01-27T06:08:52;17.83;;;7.43;;
76176;SDS011;64938;47.696;8.066;2024-01-27T06:11:25;8.07;;;4.50;;
76176;SDS011;64938;47.696;8.066;2024-01-27T06:13:51;8.10;;;3.87;;
76176;SDS011;64938;47.696;8.066;2024-01-27T06:16:17;4.57;;;3.13;;
76176;SDS011;64938;47.696;8.066;2024-01-27T06:18:45;6.63;;;4.70;;
76176;SDS011;64938;47.696;8.066;2024-01-27T06:21:11;14.57;;;4.20;;
76176;SDS011;64938;47.696;8.066;2024-01-27T06:23:38;5.00;;;3.83;;
76176;SDS011;64938;47.696;8.066;2024-01-27T06:26:06;5.93;;;3.23;;
76176;SDS011;64938;47.696;8.066;2024-01-27T06:28:32;11.20;;;3.20;;
76176;SDS011;64938;47.696;8.066;2024-01-27T06:31:00;8.07;;;3.73;;
76176;SDS011;64938;47.696;8.066;2024-01-27T06:33:27;5.97;;;3.00;;
76176;SDS011;64938;47.696;8.066;2024-01-27T06:35:53;6.70;;;2.50;;
76176;SDS011;64938;47.696;8.066;2024-01-27T06:38:19;3.23;;;2.63;;
76176;SDS011;64938;47.696;8.066;2024-01-27T06:40:45;4.20;;;2.60;;
76176;SDS011;64938;47.696;8.066;2024-01-27T06:43:12;4.33;;;3.13;;
76176;SDS011;64938;47.696;8.066;2024-01-27T06:45:38;5.67;;;3.30;;
76176;SDS011;64938;47.696;8.066;2024-01-27T06:48:05;4.10;;;3.00;;
76176;SDS011;64938;47.696;8.066;2024-01-27T06:50:31;4.70;;;3.20;;
76176;SDS011;64938;47.696;8.066;2024-01-27T06:52:58;5.27;;;3.57;;
76176;SDS011;64938;47.696;8.066;2024-01-27T06:55:24;4.50;;;3.13;;
76176;SDS011;64938;47.696;8.066;2024-01-27T06:57:50;4.10;;;3.20;;
76176;SDS011;64938;47.696;8.066;2024-01-27T07:00:16;4.50;;;2.30;;
76176;SDS011;64938;47.696;8.066;2024-01-27T07:02:43;4.87;;;2.73;;
76176;SDS011;64938;47.696;8.066;2024-01-27T07:05:09;8.50;;;3.40;;
76176;SDS011;64938;47.696;8.066;2024-01-27T07:07:35;6.13;;;3.07;;
76176;SDS011;64938;47.696;8.066;2024-01-27T07:10:02;4.27;;;2.90;;
76176;SDS011;64938;47.696;8.066;2024-01-27T07:12:28;3.40;;;3.10;;
76176;SDS011;64938;47.696;8.066;2024-01-27T07:14:54;5.60;;;3.10;;
76176;SDS011;64938;47.696;8.066;2024-01-27T07:17:20;4.37;;;3.00;;
76176;SDS011;64938;47.696;8.066;2024-01-27T07:19:46;5.93;;;3.30;;
76176;SDS011;64938;47.696;8.066;2024-01-27T07:22:12;5.13;;;3.27;;
76176;SDS011;64938;47.696;8.066;2024-01-27T07:24:38;6.27;;;4.17;;
76176;SDS011;64938;47.696;8.066;2024-01-27T07:27:04;5.90;;;3.70;;
76176;SDS011;64938;47.696;8.066;2024-01-27T07:29:30;4.37;;;2.90;;
76176;SDS011;64938;47.696;8.066;2024-01-27T07:31:56;6.63;;;3.30;;
76176;SDS011;64938;47.696;8.066;2024-01-27T07:34:22;4.93;;;3.37;;
76176;SDS011;64938;47.696;8.066;2024-01-27T07:36:48;4.50;;;3.70;;
76176;SDS011;64938;47.696;8.066;2024-01-27T07:39:14;7.30;;;3.43;;
76176;SDS011;64938;47.696;8.066;2024-01-27T07:41:40;9.47;;;3.77;;
76176;SDS011;64938;47.696;8.066;2024-01-27T07:44:08;10.00;;;4.47;;
76176;SDS011;64938;47.696;8.066;2024-01-27T07:46:36;10.67;;;7.00;;
76176;SDS011;64938;47.696;8.066;2024-01-27T07:49:03;9.73;;;6.10;;
76176;SDS011;64938;47.696;8.066;2024-01-27T07:51:29;15.03;;;7.40;;
76176;SDS011;64938;47.696;8.066;2024-01-27T07:53:55;11.27;;;5.47;;
76176;SDS011;64938;47.696;8.066;2024-01-27T07:56:21;13.53;;;6.67;;
76176;SDS011;64938;47.696;8.066;2024-01-27T07:58:47;12.27;;;6.63;;
76176;SDS011;64938;47.696;8.066;2024-01-27T08:01:14;10.37;;;7.23;;
76176;SDS011;64938;47.696;8.066;2024-01-27T08:03:41;11.50;;;6.50;;
76176;SDS011;64938;47.696;8.066;2024-01-27T08:06:15;9.10;;;5.80;;
76176;SDS011;64938;47.696;8.066;2024-01-27T08:08:46;10.00;;;5.30;;
76176;SDS011;64938;47.696;8.066;2024-01-27T08:11:12;9.83;;;5.23;;
76176;SDS011;64938;47.696;8.066;2024-01-27T08:13:40;7.67;;;4.90;;
76176;SDS011;64938;47.696;8.066;2024-01-27T08:16:06;8.40;;;4.50;;
76176;SDS011;64938;47.696;8.066;2024-01-27T08:18:36;7.67;;;4.23;;
76176;SDS011;64938;47.696;8.066;2024-01-27T08:21:02;12.07;;;4.40;;
76176;SDS011;64938;47.696;8.066;2024-01-27T08:23:29;6.63;;;3.53;;
76176;SDS011;64938;47.696;8.066;2024-01-27T08:25:54;11.60;;;4.27;;
76176;SDS011;64938;47.696;8.066;2024-01-27T08:28:21;8.80;;;3.50;;
76176;SDS011;64938;47.696;8.066;2024-01-27T08:30:47;10.60;;;4.90;;
76176;SDS011;64938;47.696;8.066;2024-01-27T08:33:13;7.17;;;4.17;;
76176;SDS011;64938;47.696;8.066;2024-01-27T08:35:39;8.77;;;5.30;;
76176;SDS011;64938;47.696;8.066;2024-01-27T08:38:06;11.50;;;4.20;;
76176;SDS011;64938;47.696;8.066;2024-01-27T08:40:32;6.20;;;4.60;;
76176;SDS011;64938;47.696;8.066;2024-01-27T08:42:58;8.17;;;4.60;;
76176;SDS011;64938;47.696;8.066;2024-01-27T08:45:24;10.30;;;4.43;;
76176;SDS011;64938;47.696;8.066;2024-01-27T08:47:51;11.60;;;4.53;;
76176;SDS011;64938;47.696;8.066;2024-01-27T08:50:17;7.80;;;4.67;;
76176;SDS011;64938;47.696;8.066;2024-01-27T08:52:43;7.57;;;4.10;;
76176;SDS011;64938;47.696;8.066;2024-01-27T08:55:09;10.00;;;3.67;;
76176;SDS011;64938;47.696;8.066;2024-01-27T08:57:35;7.47;;;3.70;;
76176;SDS011;64938;47.696;8.066;2024-01-27T09:00:04;5.43;;;3.40;;
76176;SDS011;64938;47.696;8.066;2024-01-27T09:02:31;5.53;;;3.20;;
76176;SDS011;64938;47.696;8.066;2024-01-27T09:04:57;6.90;;;3.80;;
76176;SDS011;64938;47.696;8.066;2024-01-27T09:07:24;8.10;;;3.93;;
76176;SDS011;64938;47.696;8.066;2024-01-27T09:09:50;3.30;;;2.80;;
76176;SDS011;64938;47.696;8.066;2024-01-27T09:12:16;5.87;;;3.37;;
76176;SDS011;64938;47.696;8.066;2024-01-27T09:14:41;4.70;;;3.43;;
76176;SDS011;64938;47.696;8.066;2024-01-27T09:17:07;4.23;;;2.60;;
76176;SDS011;64938;47.696;8.066;2024-01-27T09:19:33;5.73;;;2.90;;
76176;SDS011;64938;47.696;8.066;2024-01-27T09:21:59;6.83;;;2.77;;
76176;SDS011;64938;47.696;8.066;2024-01-27T09:24:25;3.87;;;2.90;;
76176;SDS011;64938;47.696;8.066;2024-01-27T09:26:51;5.60;;;3.40;;
76176;SDS011;64938;47.696;8.066;2024-01-27T09:29:17;9.30;;;2.63;;
76176;SDS011;64938;47.696;8.066;2024-01-27T09:31:46;4.23;;;2.70;;
76176;SDS011;64938;47.696;8.066;2024-01-27T09:34:11;3.47;;;2.80;;
76176;SDS011;64938;47.696;8.066;2024-01-27T09:36:37;7.67;;;3.03;;
76176;SDS011;64938;47.696;8.066;2024-01-27T09:39:03;5.27;;;2.93;;
76176;SDS011;64938;47.696;8.066;2024-01-27T09:41:30;4.87;;;2.30;;
76176;SDS011;64938;47.696;8.066;2024-01-27T09:44:02;2.50;;;2.30;;
76176;SDS011;64938;47.696;8.066;2024-01-27T09:46:29;8.10;;;4.73;;
76176;SDS011;64938;47.696;8.066;2024-01-27T09:48:55;3.30;;;2.37;;
76176;SDS011;64938;47.696;8.066;2024-01-27T09:51:21;4.50;;;2.73;;
76176;SDS011;64938;47.696;8.066;2024-01-27T09:53:48;7.27;;;3.37;;
76176;SDS011;64938;47.696;8.066;2024-01-27T09:56:16;3.80;;;2.50;;
76176;SDS011;64938;47.696;8.066;2024-01-27T09:58:47;6.10;;;2.30;;
76176;SDS011;64938;47.696;8.066;2024-01-27T10:01:16;4.13;;;2.20;;
76176;SDS011;64938;47.696;8.066;2024-01-27T10:03:43;3.50;;;2.30;;
76176;SDS011;64938;47.696;8.066;2024-01-27T10:06:09;3.20;;;2.40;;
76176;SDS011;64938;47.696;8.066;2024-01-27T10:08:36;2.83;;;2.10;;
76176;SDS011;64938;47.696;8.066;2024-01-27T10:11:06;4.50;;;2.60;;
76176;SDS011;64938;47.696;8.066;2024-01-27T10:13:33;6.03;;;2.83;;
76176;SDS011;64938;47.696;8.066;2024-01-27T10:16:00;4.17;;;2.60;;
76176;SDS011;64938;47.696;8.066;2024-01-27T10:18:27;3.20;;;2.20;;
76176;SDS011;64938;47.696;8.066;2024-01-27T10:20:53;3.70;;;2.07;;
76176;SDS011;64938;47.696;8.066;2024-01-27T10:23:19;3.40;;;2.47;;
76176;SDS011;64938;47.696;8.066;2024-01-27T10:25:45;2.30;;;2.13;;
76176;SDS011;64938;47.696;8.066;2024-01-27T10:28:11;3.03;;;2.03;;
76176;SDS011;64938;47.696;8.066;2024-01-27T10:30:38;4.70;;;2.20;;
76176;SDS011;64938;47.696;8.066;2024-01-27T10:33:04;6.40;;;2.13;;
76176;SDS011;64938;47.696;8.066;2024-01-27T10:35:30;2.70;;;2.13;;
76176;SDS011;64938;47.696;8.066;2024-01-27T10:37:56;3.77;;;2.30;;
76176;SDS011;64938;47.696;8.066;2024-01-27T10:40:22;3.00;;;2.60;;
76176;SDS011;64938;47.696;8.066;2024-01-27T10:42:51;3.87;;;2.37;;
76176;SDS011;64938;47.696;8.066;2024-01-27T10:45:30;4.03;;;1.90;;
76176;SDS011;64938;47.696;8.066;2024-01-27T10:48:01;3.43;;;2.20;;
76176;SDS011;64938;47.696;8.066;2024-01-27T10:50:28;7.20;;;2.80;;
76176;SDS011;64938;47.696;8.066;2024-01-27T10:52:57;3.40;;;1.87;;
76176;SDS011;64938;47.696;8.066;2024-01-27T10:55:24;4.97;;;2.70;;
76176;SDS011;64938;47.696;8.066;2024-01-27T10:57:51;3.20;;;2.47;;
76176;SDS011;64938;47.696;8.066;2024-01-27T11:00:18;2.37;;;2.17;;
76176;SDS011;64938;47.696;8.066;2024-01-27T11:02:44;2.07;;;1.87;;
76176;SDS011;64938;47.696;8.066;2024-01-27T11:05:10;4.33;;;1.97;;
76176;SDS011;64938;47.696;8.066;2024-01-27T11:07:37;4.57;;;2.60;;
76176;SDS011;64938;47.696;8.066;2024-01-27T11:10:04;3.77;;;2.83;;
76176;SDS011;64938;47.696;8.066;2024-01-27T11:12:30;3.77;;;2.53;;
76176;SDS011;64938;47.696;8.066;2024-01-27T11:15:03;2.40;;;2.20;;
76176;SDS011;64938;47.696;8.066;2024-01-27T11:17:38;7.97;;;3.50;;
76176;SDS011;64938;47.696;8.066;2024-01-27T11:20:07;4.30;;;2.30;;
76176;SDS011;64938;47.696;8.066;2024-01-27T11:22:35;3.97;;;2.63;;
76176;SDS011;64938;47.696;8.066;2024-01-27T11:25:18;3.90;;;3.10;;
76176;SDS011;64938;47.696;8.066;2024-01-27T11:27:45;5.80;;;3.27;;
76176;SDS011;64938;47.696;8.066;2024-01-27T11:30:29;3.40;;;2.67;;
76176;SDS011;64938;47.696;8.066;2024-01-27T11:33:00;3.10;;;2.20;;
76176;SDS011;64938;47.696;8.066;2024-01-27T11:35:27;2.90;;;2.10;;
76176;SDS011;64938;47.696;8.066;2024-01-27T11:37:54;5.80;;;2.60;;
76176;SDS011;64938;47.696;8.066;2024-01-27T11:40:20;2.37;;;2.17;;
76176;SDS011;64938;47.696;8.066;2024-01-27T11:42:56;4.40;;;2.67;;
76176;SDS011;64938;47.696;8.066;2024-01-27T11:45:27;3.97;;;2.63;;
76176;SDS011;64938;47.696;8.066;2024-01-27T11:47:55;3.43;;;2.50;;
76176;SDS011;64938;47.696;8.066;2024-01-27T11:50:22;2.50;;;2.30;;
76176;SDS011;64938;47.696;8.066;2024-01-27T11:52:48;3.70;;;2.53;;
76176;SDS011;64938;47.696;8.066;2024-01-27T11:55:17;4.40;;;2.67;;
76176;SDS011;64938;47.696;8.066;2024-01-27T11:57:44;6.33;;;2.50;;
76176;SDS011;64938;47.696;8.066;2024-01-27T12:00:10;7.37;;;5.50;;
76176;SDS011;64938;47.696;8.066;2024-01-27T12:02:37;4.90;;;3.13;;
76176;SDS011;64938;47.696;8.066;2024-01-27T12:05:04;5.47;;;2.60;;
76176;SDS011;64938;47.696;8.066;2024-01-27T12:07:31;5.40;;;3.10;;
76176;SDS011;64938;47.696;8.066;2024-01-27T12:09:58;4.30;;;2.73;;
76176;SDS011;64938;47.696;8.066;2024-01-27T12:12:24;3.83;;;2.73;;
76176;SDS011;64938;47.696;8.066;2024-01-27T12:14:50;2.83;;;2.63;;
76176;SDS011;64938;47.696;8.066;2024-01-27T12:17:17;7.70;;;2.53;;
76176;SDS011;64938;47.696;8.066;2024-01-27T12:19:47;6.23;;;2.80;;
76176;SDS011;64938;47.696;8.066;2024-01-27T12:24:52;4.60;;;2.70;;
76176;SDS011;64938;47.696;8.066;2024-01-27T12:27:19;5.20;;;2.77;;
76176;SDS011;64938;47.696;8.066;2024-01-27T12:29:47;3.13;;;2.83;;
76176;SDS011;64938;47.696;8.066;2024-01-27T12:32:14;3.00;;;2.70;;
76176;SDS011;64938;47.696;8.066;2024-01-27T12:34:40;4.83;;;2.33;;
76176;SDS011;64938;47.696;8.066;2024-01-27T12:37:07;3.47;;;2.50;;
76176;SDS011;64938;47.696;8.066;2024-01-27T12:39:33;2.77;;;2.57;;
76176;SDS011;64938;47.696;8.066;2024-01-27T12:42:00;3.70;;;2.80;;
76176;SDS011;64938;47.696;8.066;2024-01-27T12:44:26;2.90;;;2.43;;
76176;SDS011;64938;47.696;8.066;2024-01-27T12:46:52;2.50;;;2.30;;
76176;SDS011;64938;47.696;8.066;2024-01-27T12:49:18;3.07;;;2.20;;
76176;SDS011;64938;47.696;8.066;2024-01-27T12:51:44;3.57;;;2.67;;
76176;SDS011;64938;47.696;8.066;2024-01-27T12:54:12;3.40;;;2.57;;
76176;SDS011;64938;47.696;8.066;2024-01-27T12:56:38;2.67;;;2.43;;
76176;SDS011;64938;47.696;8.066;2024-01-27T12:59:04;3.20;;;2.90;;
76176;SDS011;64938;47.696;8.066;2024-01-27T13:01:32;6.63;;;5.30;;
76176;SDS011;64938;47.696;8.066;2024-01-27T13:03:58;7.77;;;3.03;;
76176;SDS011;64938;47.696;8.066;2024-01-27T13:06:25;4.37;;;2.63;;
76176;SDS011;64938;47.696;8.066;2024-01-27T13:08:52;3.83;;;2.67;;
76176;SDS011;64938;47.696;8.066;2024-01-27T13:11:19;3.13;;;2.83;;
76176;SDS011;64938;47.696;8.066;2024-01-27T13:13:46;3.50;;;2.60;;
76176;SDS011;64938;47.696;8.066;2024-01-27T13:16:17;5.20;;;2.90;;
76176;SDS011;64938;47.696;8.066;2024-01-27T13:18:43;8.70;;;4.60;;
76176;SDS011;64938;47.696;8.066;2024-01-27T13:21:11;5.00;;;3.00;;
76176;SDS011;64938;47.696;8.066;2024-01-27T13:23:37;3.43;;;3.13;;
76176;SDS011;64938;47.696;8.066;2024-01-27T13:26:03;5.47;;;3.50;;
76176;SDS011;64938;47.696;8.066;2024-01-27T13:28:30;3.70;;;3.33;;
76176;SDS011;64938;47.696;8.066;2024-01-27T13:30:56;4.80;;;3.23;;
76176;SDS011;64938;47.696;8.066;2024-01-27T13:33:23;7.63;;;4.43;;
76176;SDS011;64938;47.696;8.066;2024-01-27T13:35:49;4.50;;;3.30;;
76176;SDS011;64938;47.696;8.066;2024-01-27T13:38:15;5.23;;;3.40;;
76176;SDS011;64938;47.696;8.066;2024-01-27T13:40:49;3.53;;;3.17;;
76176;SDS011;64938;47.696;8.066;2024-01-27T13:43:15;6.07;;;3.70;;
76176;SDS011;64938;47.696;8.066;2024-01-27T13:45:41;4.23;;;3.20;;
76176;SDS011;64938;47.696;8.066;2024-01-27T13:48:07;5.13;;;3.00;;
76176;SDS011;64938;47.696;8.066;2024-01-27T13:50:33;4.00;;;2.93;;
76176;SDS011;64938;47.696;8.066;2024-01-27T13:52:59;7.17;;;4.80;;
76176;SDS011;64938;47.696;8.066;2024-01-27T13:55:25;10.63;;;6.33;;
76176;SDS011;64938;47.696;8.066;2024-01-27T13:57:52;7.60;;;5.40;;
76176;SDS011;64938;47.696;8.066;2024-01-27T14:00:19;6.60;;;4.50;;
76176;SDS011;64938;47.696;8.066;2024-01-27T14:02:46;13.03;;;5.40;;
76176;SDS011;64938;47.696;8.066;2024-01-27T14:05:12;9.93;;;5.70;;
76176;SDS011;64938;47.696;8.066;2024-01-27T14:07:38;7.57;;;4.63;;
76176;SDS011;64938;47.696;8.066;2024-01-27T14:10:04;6.57;;;4.13;;
76176;SDS011;64938;47.696;8.066;2024-01-27T14:12:30;4.73;;;3.77;;
76176;SDS011;64938;47.696;8.066;2024-01-27T14:15:05;4.13;;;3.30;;
76176;SDS011;64938;47.696;8.066;2024-01-27T14:17:34;7.27;;;4.63;;
76176;SDS011;64938;47.696;8.066;2024-01-27T14:20:02;5.70;;;3.97;;
76176;SDS011;64938;47.696;8.066;2024-01-27T14:22:29;6.47;;;3.67;;
76176;SDS011;64938;47.696;8.066;2024-01-27T14:24:55;5.30;;;4.33;;
76176;SDS011;64938;47.696;8.066;2024-01-27T14:27:21;6.57;;;4.67;;
76176;SDS011;64938;47.696;8.066;2024-01-27T14:29:52;14.93;;;7.90;;
76176;SDS011;64938;47.696;8.066;2024-01-27T14:32:19;9.03;;;6.17;;
76176;SDS011;64938;47.696;8.066;2024-01-27T14:34:45;10.13;;;6.30;;
76176;SDS011;64938;47.696;8.066;2024-01-27T14:37:11;9.20;;;6.67;;
76176;SDS011;64938;47.696;8.066;2024-01-27T14:39:39;8.20;;;5.93;;
76176;SDS011;64938;47.696;8.066;2024-01-27T14:42:10;12.80;;;7.20;;
76176;SDS011;64938;47.696;8.066;2024-01-27T14:44:35;13.10;;;8.03;;
76176;SDS011;64938;47.696;8.066;2024-01-27T14:47:01;9.97;;;6.00;;